Grantsdale, Montana
Current Conditions -  °F | °C
As of 6:53 PM on Saturday 22 Nov 2014 (Local Time) from KMSO Reporting Station
Overcast Overcast  
Wind Chill: 32°   Ceiling: 6500
Heat Index: 36°   Visibility: 10mi
Dew Point: 28°   Wind: 5mph
Humidity: 73%   Direction: 360°N
Pressure: 29.74"   Gusts: NA
Location:  46.2°N, 114.13°W
Report Text: KMSO 230153Z 36004KT 10SM SCT050 OVC065 02/M02 A2974 RMK AO2 SLP091 T00221022
Loading
Personal Weather Stations






























Interactive Weather Map New forecast layout! Learn more

10-Day Weather Forecast

Advertisements
Track Severe Weather on mobile